createdAt,value
2018-06-14T00:00:00.825Z,0.0
2018-06-14T00:20:01.032Z,0.0
2018-06-14T00:40:01.213Z,0.0
2018-06-14T00:45:01.125Z,0.0
2018-06-14T01:00:00.557Z,0.0
2018-06-14T01:20:00.800Z,1.0
2018-06-14T01:30:00.640Z,1.0
2018-06-14T01:33:00.425Z,1.1
2018-06-14T01:39:00.700Z,1.2
2018-06-14T02:00:01.096Z,27.0
2018-06-14T02:01:00.795Z,27.5
2018-06-14T02:02:00.787Z,28.0
2018-06-14T02:03:00.788Z,28.8
2018-06-14T02:04:00.790Z,29.6
2018-06-14T02:05:00.968Z,30.5
2018-06-14T02:06:00.755Z,31.6
2018-06-14T02:07:00.761Z,33.0
2018-06-14T02:08:00.757Z,34.8
2018-06-14T02:09:00.785Z,37.0
2018-06-14T02:10:00.961Z,40.0
2018-06-14T02:11:00.789Z,44.1
2018-06-14T02:12:00.791Z,49.2
2018-06-14T02:13:00.789Z,55.1
2018-06-14T02:14:00.793Z,61.8
2018-06-14T02:30:01.365Z,996.0
2018-06-14T02:50:00.519Z,2899.0
2018-06-14T03:10:00.684Z,8890.0
2018-06-14T03:30:01.038Z,18853.0
2018-06-14T03:50:01.294Z,24159.0
2018-06-14T04:10:00.530Z,27130.0
2018-06-14T04:11:00.156Z,26977.5
2018-06-14T04:12:00.154Z,27112.3
2018-06-14T04:13:00.188Z,27247.0
2018-06-14T04:14:00.209Z,27168.4
2018-06-14T04:15:00.331Z,27043.0
2018-06-14T04:16:00.190Z,26977.0
2018-06-14T04:17:00.185Z,26995.9
2018-06-14T04:18:00.219Z,26995.7
2018-06-14T04:19:00.178Z,26889.2
2018-06-14T04:20:00.329Z,26681.3
2018-06-14T04:21:00.152Z,26397.6
2018-06-14T04:22:00.184Z,26079.7
2018-06-14T04:23:00.155Z,25810.2
2018-06-14T04:24:00.189Z,25616.3
2018-06-14T04:25:00.298Z,25416.7
2018-06-14T04:26:00.190Z,25342.9
2018-06-14T04:27:00.167Z,25367.2
2018-06-14T04:28:00.188Z,25538.9
2018-06-14T04:29:00.192Z,25879.6
2018-06-14T04:30:00.333Z,26359.9
2018-06-14T04:31:00.168Z,26987.9
2018-06-14T04:32:00.162Z,27800.0
2018-06-14T04:33:00.171Z,28770.9
2018-06-14T04:34:00.224Z,30138.1
2018-06-14T04:35:00.389Z,31861.9
2018-06-14T04:36:00.195Z,33836.3
2018-06-14T04:37:00.197Z,35923.9
2018-06-14T04:38:00.191Z,37982.4
2018-06-14T04:39:00.224Z,39916.7
2018-06-14T04:40:00.345Z,41672.1
2018-06-14T04:41:00.170Z,43270.4
2018-06-14T04:42:00.190Z,44766.8
2018-06-14T04:43:00.162Z,46172.9
2018-06-14T04:44:00.195Z,47569.2
2018-06-14T04:45:00.336Z,48971.2
2018-06-14T04:46:00.193Z,50234.6
2018-06-14T04:47:00.177Z,51217.6
2018-06-14T04:48:00.193Z,52028.8
2018-06-14T04:49:00.192Z,52551.5
2018-06-14T04:50:00.337Z,52786.5
2018-06-14T04:51:00.165Z,52954.9
2018-06-14T04:52:00.197Z,53279.7
2018-06-14T04:53:00.195Z,54103.1
2018-06-14T04:54:00.243Z,55011.0
2018-06-14T04:55:00.305Z,56015.5
2018-06-14T04:56:00.197Z,57071.7
2018-06-14T04:57:00.166Z,58067.6
2018-06-14T04:58:00.168Z,58545.3
2018-06-14T04:59:00.201Z,58596.4
2018-06-14T05:00:00.340Z,58489.3
2018-06-14T05:01:00.200Z,58259.1
2018-06-14T05:02:00.196Z,58154.2
2018-06-14T05:03:00.200Z,58173.9
2018-06-14T05:04:00.234Z,58579.3
2018-06-14T05:05:00.307Z,58979.6
2018-06-14T05:06:00.167Z,59290.1
2018-06-14T05:07:00.200Z,59056.7
2018-06-14T05:08:00.171Z,58411.4
2018-06-14T05:09:00.202Z,57897.5
2018-06-14T05:10:00.477Z,57569.5
2018-06-14T05:12:00.168Z,57596.5
2018-06-14T05:13:00.203Z,58066.6
2018-06-14T05:14:00.238Z,58857.2
2018-06-14T05:15:00.334Z,59689.9
2018-06-14T05:16:00.169Z,60625.7
2018-06-14T05:17:00.214Z,61495.9
2018-06-14T05:18:00.263Z,62263.5
2018-06-14T05:19:00.205Z,62608.5
2018-06-14T05:20:00.418Z,62978.3
2018-06-14T05:21:00.171Z,63342.1
2018-06-14T05:22:00.203Z,64047.8
2018-06-14T05:23:00.174Z,64693.1
2018-06-14T05:24:00.242Z,65207.0
2018-06-14T05:25:00.323Z,65535.0
2018-06-14T05:30:00.505Z,65535.0
2018-06-14T05:45:00.393Z,65535.0
2018-06-14T06:00:00.604Z,65535.0
2018-06-14T06:15:00.458Z,65535.0
2018-06-14T06:30:00.539Z,65535.0
2018-06-14T06:45:00.444Z,65535.0
2018-06-14T07:00:00.476Z,65535.0
2018-06-14T07:15:00.548Z,65535.0
2018-06-14T07:30:00.515Z,65535.0
2018-06-14T07:45:00.420Z,65535.0
2018-06-14T08:00:00.810Z,65535.0
2018-06-14T08:15:00.451Z,65535.0
2018-06-14T08:30:00.494Z,65535.0
2018-06-14T08:45:00.373Z,65535.0
2018-06-14T09:00:00.601Z,65535.0
2018-06-14T09:15:00.535Z,65535.0
2018-06-14T09:30:00.586Z,65535.0
2018-06-14T09:45:00.449Z,65535.0
2018-06-14T10:00:00.648Z,65535.0
2018-06-14T10:15:00.540Z,65535.0
2018-06-14T10:30:00.508Z,65535.0
2018-06-14T10:45:00.503Z,65535.0
2018-06-14T11:00:00.640Z,65535.0
2018-06-14T11:15:00.474Z,65535.0
2018-06-14T11:30:00.473Z,65535.0
2018-06-14T11:45:00.450Z,65535.0
2018-06-14T12:00:00.606Z,65535.0
2018-06-14T12:15:00.468Z,65535.0
2018-06-14T12:30:00.522Z,65535.0
2018-06-14T12:45:00.498Z,65535.0
2018-06-14T13:00:00.599Z,65535.0
2018-06-14T13:15:00.528Z,65535.0
2018-06-14T13:30:00.642Z,65535.0
2018-06-14T13:45:00.524Z,65535.0
2018-06-14T14:00:00.632Z,65535.0
2018-06-14T14:15:00.500Z,65535.0
2018-06-14T14:30:00.548Z,65535.0
2018-06-14T14:45:00.549Z,65535.0
2018-06-14T15:00:00.676Z,65535.0
2018-06-14T15:15:00.679Z,65452.1
2018-06-14T15:16:00.328Z,65384.5
2018-06-14T15:22:00.357Z,65196.1
2018-06-14T15:23:00.328Z,64636.7
2018-06-14T15:24:00.330Z,63984.1
2018-06-14T15:25:00.600Z,63606.1
2018-06-14T15:30:00.613Z,63688.9
2018-06-14T15:31:00.334Z,63756.5
2018-06-14T15:35:00.554Z,63493.5
2018-06-14T15:36:00.330Z,62940.1
2018-06-14T15:37:00.331Z,62442.2
2018-06-14T15:38:00.330Z,62237.9
2018-06-14T15:39:00.333Z,62039.4
2018-06-14T15:40:00.535Z,61467.1
2018-06-14T15:41:00.333Z,60500.8
2018-06-14T15:42:00.361Z,59534.7
2018-06-14T15:43:00.337Z,58462.2
2018-06-14T15:44:00.336Z,57256.9
2018-06-14T15:45:00.537Z,55941.2
2018-06-14T15:46:00.367Z,54579.6
2018-06-14T15:47:00.333Z,53286.2
2018-06-14T15:48:00.331Z,52105.5
2018-06-14T15:49:00.364Z,50998.9
2018-06-14T15:50:00.541Z,50110.8
2018-06-14T15:51:00.332Z,49466.7
2018-06-14T15:52:00.330Z,48945.8
2018-06-14T15:53:00.332Z,48453.3
2018-06-14T15:54:00.361Z,47984.1
2018-06-14T15:55:00.535Z,47635.0
2018-06-14T15:56:00.363Z,47420.8
2018-06-14T15:57:00.343Z,47325.3
2018-06-14T15:58:00.340Z,47301.7
2018-06-14T15:59:00.367Z,47282.4
2018-06-14T16:00:00.584Z,47230.5
2018-06-14T16:01:00.340Z,47068.9
2018-06-14T16:02:00.366Z,46690.8
2018-06-14T16:03:00.334Z,46041.3
2018-06-14T16:04:00.395Z,45167.7
2018-06-14T16:05:00.515Z,44206.1
2018-06-14T16:06:00.366Z,43237.5
2018-06-14T16:07:00.405Z,42292.2
2018-06-14T16:08:00.372Z,41409.9
2018-06-14T16:09:00.336Z,40584.6
2018-06-14T16:10:00.515Z,39718.9
2018-06-14T16:11:00.345Z,38748.8
2018-06-14T16:12:00.398Z,37697.8
2018-06-14T16:13:00.343Z,36700.8
2018-06-14T16:14:00.347Z,35812.4
2018-06-14T16:15:00.569Z,34990.5
2018-06-14T16:16:00.374Z,34205.7
2018-06-14T16:17:00.379Z,33462.7
2018-06-14T16:18:00.351Z,32818.9
2018-06-14T16:19:00.346Z,32311.5
2018-06-14T16:20:00.510Z,31974.7
2018-06-14T16:21:00.346Z,31748.7
2018-06-14T16:22:00.344Z,31528.9
2018-06-14T16:23:00.392Z,31280.0
2018-06-14T16:24:00.379Z,31027.3
2018-06-14T16:25:00.608Z,30719.3
2018-06-14T16:26:00.377Z,30267.0
2018-06-14T16:27:00.356Z,29672.1
2018-06-14T16:28:00.351Z,28955.4
2018-06-14T16:29:00.345Z,28131.5
2018-06-14T16:30:00.558Z,27306.8
2018-06-14T16:31:00.352Z,26606.0
2018-06-14T16:32:00.377Z,26042.7
2018-06-14T16:33:00.351Z,25562.5
2018-06-14T16:34:00.355Z,25107.3
2018-06-14T16:35:00.556Z,24607.3
2018-06-14T16:36:00.347Z,24104.1
2018-06-14T16:37:00.348Z,23626.0
2018-06-14T16:38:00.350Z,23157.6
2018-06-14T16:39:00.378Z,22701.3
2018-06-14T16:40:00.559Z,22358.9
2018-06-14T16:41:00.351Z,22168.7
2018-06-14T16:42:00.384Z,22086.1
2018-06-14T16:43:00.381Z,22098.8
2018-06-14T16:44:00.351Z,22223.9
2018-06-14T16:45:00.525Z,22360.5
2018-06-14T16:46:00.429Z,22395.5
2018-06-14T16:47:00.353Z,22306.6
2018-06-14T16:48:00.356Z,22116.7
2018-06-14T16:49:00.347Z,21789.1
2018-06-14T16:50:00.564Z,21432.9
2018-06-14T16:51:00.392Z,21265.3
2018-06-14T16:52:00.352Z,21357.1
2018-06-14T16:53:00.353Z,21658.7
2018-06-14T16:54:00.386Z,22261.3
2018-06-14T16:55:00.591Z,23142.5
2018-06-14T16:56:00.408Z,24393.7
2018-06-14T16:57:00.392Z,26322.3
2018-06-14T16:58:00.368Z,28773.7
2018-06-14T16:59:00.413Z,31333.7
2018-06-14T17:00:00.563Z,33868.5
2018-06-14T17:01:00.421Z,36439.4
2018-06-14T17:02:00.391Z,39127.9
2018-06-14T17:03:00.415Z,41949.8
2018-06-14T17:04:00.359Z,44797.4
2018-06-14T17:05:00.574Z,47347.2
2018-06-14T17:06:00.425Z,49337.6
2018-06-14T17:07:00.393Z,50902.3
2018-06-14T17:08:00.391Z,52272.8
2018-06-14T17:09:00.357Z,53492.2
2018-06-14T17:10:00.496Z,54764.3
2018-06-14T17:11:00.427Z,56107.4
2018-06-14T17:12:00.398Z,56969.1
2018-06-14T17:13:00.390Z,57314.7
2018-06-14T17:14:00.393Z,57566.6
2018-06-14T17:15:00.593Z,57825.9
2018-06-14T17:16:00.469Z,57958.9
2018-06-14T17:17:00.363Z,57875.0
2018-06-14T17:18:00.446Z,57347.5
2018-06-14T17:19:00.431Z,56584.6
2018-06-14T17:20:00.530Z,55993.8
2018-06-14T17:21:00.361Z,55602.4
2018-06-14T17:22:00.401Z,55423.0
2018-06-14T17:23:00.395Z,55485.6
2018-06-14T17:24:00.393Z,55697.4
2018-06-14T17:25:00.509Z,55727.4
2018-06-14T17:26:00.391Z,55407.7
2018-06-14T17:27:00.391Z,54956.3
2018-06-14T17:28:00.364Z,54536.0
2018-06-14T17:29:00.393Z,54212.1
2018-06-14T17:30:00.581Z,54136.1
2018-06-14T17:31:00.398Z,54255.5
2018-06-14T17:32:00.427Z,54342.7
2018-06-14T17:33:00.359Z,54373.1
2018-06-14T17:34:00.432Z,54348.7
2018-06-14T17:35:00.539Z,54359.9
2018-06-14T17:36:00.404Z,54320.8
2018-06-14T17:37:00.362Z,53982.6
2018-06-14T17:38:00.369Z,53225.8
2018-06-14T17:39:00.426Z,52029.5
2018-06-14T17:40:00.545Z,50500.3
2018-06-14T17:41:00.435Z,48817.3
2018-06-14T17:42:00.368Z,47055.9
2018-06-14T17:43:00.364Z,45300.4
2018-06-14T17:44:00.431Z,43485.5
2018-06-14T17:45:00.626Z,41538.4
2018-06-14T17:46:00.435Z,39627.8
2018-06-14T17:47:00.389Z,37914.3
2018-06-14T17:48:00.369Z,36617.9
2018-06-14T17:49:00.432Z,35793.9
2018-06-14T17:50:00.539Z,35198.0
2018-06-14T17:51:00.371Z,34810.2
2018-06-14T17:52:00.371Z,34537.2
2018-06-14T17:53:00.366Z,34358.9
2018-06-14T17:54:00.435Z,34325.5
2018-06-14T17:55:00.552Z,34405.3
2018-06-14T17:56:00.413Z,34504.9
2018-06-14T17:57:00.456Z,34663.5
2018-06-14T17:58:00.373Z,34842.5
2018-06-14T17:59:00.436Z,34944.3
2018-06-14T18:00:00.605Z,34776.7
2018-06-14T18:01:00.372Z,34308.1
2018-06-14T18:02:00.403Z,33576.6
2018-06-14T18:03:00.420Z,32745.9
2018-06-14T18:04:00.403Z,31967.7
2018-06-14T18:05:00.540Z,31281.3
2018-06-14T18:06:01.007Z,30731.5
2018-06-14T18:07:00.369Z,30373.7
2018-06-14T18:08:00.386Z,30169.5
2018-06-14T18:09:00.456Z,30032.3
2018-06-14T18:10:00.542Z,29994.5
2018-06-14T18:11:00.402Z,30022.6
2018-06-14T18:12:00.382Z,30111.3
2018-06-14T18:13:00.404Z,30277.1
2018-06-14T18:14:00.436Z,30705.5
2018-06-14T18:15:00.594Z,31787.1
2018-06-14T18:16:00.403Z,33606.0
2018-06-14T18:17:00.374Z,36114.8
2018-06-14T18:18:00.379Z,38987.7
2018-06-14T18:19:00.445Z,41800.1
2018-06-14T18:20:00.554Z,44417.9
2018-06-14T18:21:00.378Z,46858.7
2018-06-14T18:22:00.384Z,49069.5
2018-06-14T18:23:00.428Z,50968.4
2018-06-14T18:24:00.473Z,52620.5
2018-06-14T18:25:00.583Z,53888.1
2018-06-14T18:26:00.407Z,54891.5
2018-06-14T18:27:00.417Z,55863.7
2018-06-14T18:28:00.381Z,56855.9
2018-06-14T18:29:00.457Z,57806.9
2018-06-14T18:30:00.604Z,58516.9
2018-06-14T18:31:00.412Z,58935.9
2018-06-14T18:32:00.384Z,59083.7
2018-06-14T18:33:00.383Z,58614.5
2018-06-14T18:34:00.448Z,58153.6
2018-06-14T18:35:00.564Z,58008.9
2018-06-14T18:37:00.416Z,58140.3
2018-06-14T18:38:00.407Z,58501.6
2018-06-14T18:39:00.456Z,59037.3
2018-06-14T18:40:00.561Z,59532.1
2018-06-14T18:41:00.386Z,60131.4
2018-06-14T18:42:00.390Z,60557.3
2018-06-14T18:43:00.388Z,60833.6
2018-06-14T18:44:00.453Z,60831.0
2018-06-14T18:45:00.562Z,60512.5
2018-06-14T18:46:00.418Z,60015.7
2018-06-14T18:47:00.421Z,59453.1
2018-06-14T18:48:00.389Z,59115.0
2018-06-14T18:49:00.452Z,58733.2
2018-06-14T18:50:00.560Z,57882.8
2018-06-14T18:51:00.389Z,56800.8
2018-06-14T18:52:00.430Z,55431.9
2018-06-14T18:53:00.427Z,53522.7
2018-06-14T18:54:00.453Z,51201.6
2018-06-14T18:55:00.530Z,49153.8
2018-06-14T18:56:00.445Z,47063.7
2018-06-14T18:57:00.420Z,45058.7
2018-06-14T18:58:00.461Z,42964.6
2018-06-14T18:59:00.452Z,40720.4
2018-06-14T19:00:00.594Z,38460.0
2018-06-14T19:01:00.391Z,36060.5
2018-06-14T19:02:00.431Z,33536.8
2018-06-14T19:03:00.397Z,31199.1
2018-06-14T19:04:00.437Z,28712.8
2018-06-14T19:05:00.658Z,26382.3
2018-06-14T19:06:00.424Z,24027.1
2018-06-14T19:07:00.395Z,21900.6
2018-06-14T19:08:00.426Z,20269.8
2018-06-14T19:09:00.428Z,18885.8
2018-06-14T19:10:00.607Z,17491.9
2018-06-14T19:11:00.425Z,16307.5
2018-06-14T19:12:00.432Z,15276.9
2018-06-14T19:13:00.431Z,14314.2
2018-06-14T19:14:00.393Z,13448.4
2018-06-14T19:15:00.728Z,12660.9
2018-06-14T19:16:00.426Z,12129.4
2018-06-14T19:17:00.397Z,11662.3
2018-06-14T19:18:00.440Z,11235.4
2018-06-14T19:19:00.399Z,10931.1
2018-06-14T19:20:00.609Z,10453.5
2018-06-14T19:21:00.429Z,10240.0
2018-06-14T19:22:00.400Z,10110.7
2018-06-14T19:23:00.424Z,9896.6
2018-06-14T19:24:00.395Z,9735.1
2018-06-14T19:25:00.611Z,9610.1
2018-06-14T19:26:00.424Z,9430.3
2018-06-14T19:27:00.402Z,9078.2
2018-06-14T19:28:00.397Z,8774.3
2018-06-14T19:29:00.402Z,8610.8
2018-06-14T19:30:00.612Z,8431.7
2018-06-14T19:31:00.396Z,8045.7
2018-06-14T19:32:00.401Z,7723.7
2018-06-14T19:33:00.399Z,7343.6
2018-06-14T19:34:00.399Z,6969.1
2018-06-14T19:35:00.606Z,6753.3
2018-06-14T19:36:00.442Z,6383.9
2018-06-14T19:37:00.429Z,5960.5
2018-06-14T19:38:00.429Z,5617.5
2018-06-14T19:39:00.400Z,5372.9
2018-06-14T19:40:00.697Z,5119.1
2018-06-14T19:41:00.431Z,4818.7
2018-06-14T19:42:00.410Z,4537.1
2018-06-14T19:43:00.401Z,4214.9
2018-06-14T19:44:00.433Z,3863.0
2018-06-14T19:45:00.570Z,3619.8
2018-06-14T19:46:00.403Z,3495.5
2018-06-14T19:47:00.508Z,3256.3
2018-06-14T19:48:00.430Z,2981.8
2018-06-14T19:49:00.407Z,2687.9
2018-06-14T19:50:00.612Z,2390.3
2018-06-14T19:51:00.440Z,2083.2
2018-06-14T19:52:00.436Z,1800.1
2018-06-14T19:53:00.439Z,1566.2
2018-06-14T19:54:00.403Z,1344.9
2018-06-14T19:55:00.618Z,1192.1
2018-06-14T19:56:00.409Z,1086.5
2018-06-14T19:57:00.439Z,984.0
2018-06-14T19:58:00.439Z,884.1
2018-06-14T19:59:00.439Z,823.2
2018-06-14T20:00:00.581Z,740.9
2018-06-14T20:01:00.457Z,614.7
2018-06-14T20:02:00.405Z,535.3
2018-06-14T20:03:00.412Z,479.7
2018-06-14T20:04:00.412Z,433.2
2018-06-14T20:05:00.608Z,411.3
2018-06-14T20:06:00.410Z,401.0
2018-06-14T20:07:00.415Z,395.2
2018-06-14T20:08:00.411Z,395.8
2018-06-14T20:09:00.444Z,404.0
2018-06-14T20:10:00.693Z,410.1
2018-06-14T20:11:00.438Z,418.3
2018-06-14T20:12:00.483Z,431.6
2018-06-14T20:13:00.412Z,438.8
2018-06-14T20:14:00.476Z,435.9
2018-06-14T20:15:00.613Z,435.8
2018-06-14T20:16:00.412Z,434.6
2018-06-14T20:17:00.473Z,434.7
2018-06-14T20:18:00.411Z,431.7
2018-06-14T20:19:00.445Z,420.2
2018-06-14T20:20:00.591Z,399.7
2018-06-14T20:21:00.611Z,379.1
2018-06-14T20:22:00.483Z,357.9
2018-06-14T20:23:00.417Z,329.3
2018-06-14T20:24:00.416Z,293.2
2018-06-14T20:25:00.559Z,257.2
2018-06-14T20:26:00.451Z,220.3
2018-06-14T20:27:00.481Z,186.1
2018-06-14T20:28:00.460Z,163.3
2018-06-14T20:29:00.417Z,152.3
2018-06-14T20:30:00.590Z,145.3
2018-06-14T20:31:00.447Z,141.5
2018-06-14T20:32:00.482Z,137.7
2018-06-14T20:33:00.451Z,134.6
2018-06-14T20:34:00.454Z,132.0
2018-06-14T20:35:00.555Z,128.3
2018-06-14T20:36:00.451Z,123.3
2018-06-14T20:37:00.475Z,117.6
2018-06-14T20:38:00.443Z,112.4
2018-06-14T20:39:00.420Z,108.3
2018-06-14T20:40:00.632Z,103.7
2018-06-14T20:41:00.418Z,98.3
2018-06-14T20:42:00.547Z,92.7
2018-06-14T20:43:00.423Z,87.3
2018-06-14T20:44:00.449Z,81.3
2018-06-14T20:45:00.592Z,75.2
2018-06-14T20:46:00.449Z,69.3
2018-06-14T20:47:00.449Z,63.3
2018-06-14T20:48:00.558Z,57.5
2018-06-14T20:49:00.446Z,52.2
2018-06-14T20:50:01.848Z,47.3
2018-06-14T20:51:00.594Z,42.8
2018-06-14T20:52:00.654Z,38.6
2018-06-14T20:53:00.522Z,34.7
2018-06-14T20:54:00.483Z,30.9
2018-06-14T20:55:00.598Z,27.5
2018-06-14T20:56:00.489Z,24.3
2018-06-14T20:57:00.574Z,21.5
2018-06-14T20:58:00.538Z,19.1
2018-06-14T20:59:00.620Z,16.9
2018-06-14T21:00:00.862Z,15.0
2018-06-14T21:01:00.480Z,13.3
2018-06-14T21:02:00.673Z,11.9
2018-06-14T21:03:00.431Z,10.7
2018-06-14T21:04:00.462Z,9.5
2018-06-14T21:05:00.645Z,8.3
2018-06-14T21:06:00.429Z,7.4
2018-06-14T21:07:00.494Z,6.7
2018-06-14T21:08:00.459Z,6.1
2018-06-14T21:09:00.426Z,5.7
2018-06-14T21:10:00.604Z,5.3
2018-06-14T21:11:00.432Z,4.9
2018-06-14T21:12:00.493Z,4.7
2018-06-14T21:13:00.432Z,4.5
2018-06-14T21:14:00.433Z,4.3
2018-06-14T21:15:00.602Z,4.1
2018-06-14T21:16:00.429Z,3.9
2018-06-14T21:17:00.496Z,3.7
2018-06-14T21:18:00.429Z,3.5
2018-06-14T21:19:00.459Z,3.4
2018-06-14T21:20:00.675Z,3.3
2018-06-14T21:21:00.434Z,3.1
2018-06-14T21:22:00.469Z,2.9
2018-06-14T21:23:00.437Z,2.8
2018-06-14T21:24:00.434Z,2.7
2018-06-14T21:25:00.573Z,2.5
2018-06-14T21:27:00.500Z,2.4
2018-06-14T21:28:00.463Z,2.3
2018-06-14T21:29:00.479Z,2.1
2018-06-14T21:30:00.615Z,2.0
2018-06-14T21:31:00.477Z,1.9
2018-06-14T21:32:00.490Z,1.7
2018-06-14T21:33:00.436Z,1.6
2018-06-14T21:34:00.463Z,1.5
2018-06-14T21:36:00.672Z,1.4
2018-06-14T21:37:00.464Z,1.3
2018-06-14T21:39:00.597Z,1.2
2018-06-14T21:40:00.489Z,1.1
2018-06-14T21:42:05.676Z,1.0
2018-06-14T21:45:00.439Z,1.0
2018-06-14T21:47:00.640Z,0.9
2018-06-14T21:49:00.534Z,0.8
2018-06-14T21:50:00.441Z,0.7
2018-06-14T21:52:00.641Z,0.6
2018-06-14T21:53:00.442Z,0.5
2018-06-14T21:55:00.439Z,0.4
2018-06-14T21:56:00.443Z,0.3
2018-06-14T21:58:00.678Z,0.2
2018-06-14T21:59:00.481Z,0.1
2018-06-14T22:00:00.450Z,0.1
2018-06-14T23:40:00.836Z,0.0
